Darya Jyoti — VRGM9 — position and weather

sailwx.info

Track history (hours):
 
Tides and Currents Weather Stations Pressure Air Temp Water Temp Dewpoint Dewpoint Depression Visibility Wind Speed Wind Dir Waves Ship Positions

Darya Jyoti

Last reported at 2017-Jan-09 20:32 UTC. Time now 2017-Jan-18 01:37 UTC.
Position S 34°46' W 057°33'.
Warning: this ship's position is 8 days out of date.

Length 229 m; draft 10.4 m.

Type: Cargo ship. MMSI: 477742700.

Date/timePositionNaut miles runAvg speedWind from/ knotsBaromVisibWave heightAir tempDewpointWater temp
2017-Jan-09 20:32S 34°46' W 057°33'1110.9
2017-Jan-09 19:33S 34°44' W 057°46'1 1.3
2017-Jan-09 18:31S 34°44' W 057°47'0 0.0
2017-Jan-09 17:31S 34°44' W 057°47'0 0.1
2017-Jan-09 16:31S 34°45' W 057°47'0 0.0
2017-Jan-09 15:31S 34°45' W 057°47'0 0.0
2017-Jan-09 14:31S 34°44' W 057°47'0 0.0
2017-Jan-09 13:31S 34°44' W 057°47'0 0.0
2017-Jan-09 12:31S 34°44' W 057°47'0 0.0
2017-Jan-09 11:31S 34°44' W 057°47'0 0.0
2017-Jan-09 10:31S 34°44' W 057°47'0 0.0
2017-Jan-09 09:31S 34°44' W 057°47'0 0.0
2017-Jan-09 08:31S 34°44' W 057°47'0 0.0
2017-Jan-09 07:31S 34°44' W 057°47'0 0.1
2017-Jan-09 06:31S 34°45' W 057°48'0 0.1
2017-Jan-09 05:31S 34°45' W 057°48'0 0.1
2017-Jan-09 04:31S 34°44' W 057°48'0 0.0
2017-Jan-09 03:28S 34°44' W 057°48'0 0.0
2017-Jan-09 02:22S 34°44' W 057°48'0 0.2
2017-Jan-09 01:31S 34°44' W 057°48'0 0.2
2017-Jan-09 00:31S 34°45' W 057°47'0 0.1
2017-Jan-08 23:31S 34°44' W 057°47'0 0.4
2017-Jan-08 22:32S 34°45' W 057°47'1 0.7
2017-Jan-08 21:34S 34°44' W 057°47'8 8.4
2017-Jan-08 20:34S 34°41' W 057°57'1212.2
2017-Jan-08 19:33S 34°37' W 058°11'100 8.3
2017-Jan-08 07:34S 33°37' W 059°47'  
Track history (hours):
 
Tides and Currents Weather Stations Pressure Air Temp Water Temp Dewpoint Dewpoint Depression Visibility Wind Speed Wind Dir Waves Ship Positions

Darya Jyoti

Last reported at 2017-Jan-09 20:32 UTC. Time now 2017-Jan-18 01:37 UTC.
Position S 34°46' W 057°33'.
Warning: this ship's position is 8 days out of date.

Length 229 m; draft 10.4 m.

Type: Cargo ship. MMSI: 477742700.

Date/timePositionNaut miles runAvg speedWind from/ knotsBaromVisibWave heightAir tempDewpointWater temp
2017-Jan-09 20:32S 34°46' W 057°33'1110.9
2017-Jan-09 19:33S 34°44' W 057°46'1 1.3
2017-Jan-09 18:31S 34°44' W 057°47'0 0.0
2017-Jan-09 17:31S 34°44' W 057°47'0 0.1
2017-Jan-09 16:31S 34°45' W 057°47'0 0.0
2017-Jan-09 15:31S 34°45' W 057°47'0 0.0
2017-Jan-09 14:31S 34°44' W 057°47'0 0.0
2017-Jan-09 13:31S 34°44' W 057°47'0 0.0
2017-Jan-09 12:31S 34°44' W 057°47'0 0.0
2017-Jan-09 11:31S 34°44' W 057°47'0 0.0
2017-Jan-09 10:31S 34°44' W 057°47'0 0.0
2017-Jan-09 09:31S 34°44' W 057°47'0 0.0
2017-Jan-09 08:31S 34°44' W 057°47'0 0.0
2017-Jan-09 07:31S 34°44' W 057°47'0 0.1
2017-Jan-09 06:31S 34°45' W 057°48'0 0.1
2017-Jan-09 05:31S 34°45' W 057°48'0 0.1
2017-Jan-09 04:31S 34°44' W 057°48'0 0.0
2017-Jan-09 03:28S 34°44' W 057°48'0 0.0
2017-Jan-09 02:22S 34°44' W 057°48'0 0.2
2017-Jan-09 01:31S 34°44' W 057°48'0 0.2
2017-Jan-09 00:31S 34°45' W 057°47'0 0.1
2017-Jan-08 23:31S 34°44' W 057°47'0 0.4
2017-Jan-08 22:32S 34°45' W 057°47'1 0.7
2017-Jan-08 21:34S 34°44' W 057°47'8 8.4
2017-Jan-08 20:34S 34°41' W 057°57'1212.2
2017-Jan-08 19:33S 34°37' W 058°11'100 8.3
2017-Jan-08 07:34S 33°37' W 059°47'  

Dump ship's entire track history